sensor_id;sensor_type;location;lat;lon;timestamp;pressure;altitude;pressure_sealevel;temperature;humidity
58739;BME280;44512;53.046;18.604;2022-10-24T00:03:52;101589.99;;;13.17;71.52
58739;BME280;44512;53.046;18.604;2022-10-24T00:14:21;101586.22;;;13.18;71.57
58739;BME280;44512;53.046;18.604;2022-10-24T00:24:49;101574.52;;;13.17;71.73
58739;BME280;44512;53.046;18.604;2022-10-24T00:35:18;101570.96;;;13.17;71.84
58739;BME280;44512;53.046;18.604;2022-10-24T00:45:53;101547.34;;;13.17;72.00
58739;BME280;44512;53.046;18.604;2022-10-24T00:56:17;101532.27;;;13.15;72.12
58739;BME280;44512;53.046;18.604;2022-10-24T01:48:40;101466.76;;;13.03;72.64
58739;BME280;44512;53.046;18.604;2022-10-24T01:59:52;101462.76;;;12.99;72.93
58739;BME280;44512;53.046;18.604;2022-10-24T02:09:37;101455.44;;;12.99;73.45
58739;BME280;44512;53.046;18.604;2022-10-24T02:20:02;101437.70;;;13.03;73.11
58739;BME280;44512;53.046;18.604;2022-10-24T02:30:36;101431.22;;;13.04;73.15
58739;BME280;44512;53.046;18.604;2022-10-24T02:41:03;101440.17;;;12.98;73.26
58739;BME280;44512;53.046;18.604;2022-10-24T02:51:31;101419.66;;;12.96;73.43
58739;BME280;44512;53.046;18.604;2022-10-24T03:01:56;101405.02;;;12.97;73.46
58739;BME280;44512;53.046;18.604;2022-10-24T03:12:24;101404.61;;;12.93;73.48
58739;BME280;44512;53.046;18.604;2022-10-24T03:22:52;101386.81;;;12.91;73.68
58739;BME280;44512;53.046;18.604;2022-10-24T03:33:21;101346.50;;;12.94;73.64
58739;BME280;44512;53.046;18.604;2022-10-24T03:43:49;101345.24;;;12.97;73.57
58739;BME280;44512;53.046;18.604;2022-10-24T03:54:17;101350.89;;;12.95;73.47
58739;BME280;44512;53.046;18.604;2022-10-24T04:15:14;101331.81;;;12.82;73.68
58739;BME280;44512;53.046;18.604;2022-10-24T04:25:43;101304.65;;;12.82;73.88
58739;BME280;44512;53.046;18.604;2022-10-24T04:36:11;101297.13;;;12.84;73.93
58739;BME280;44512;53.046;18.604;2022-10-24T04:46:39;101305.48;;;12.83;73.97
58739;BME280;44512;53.046;18.604;2022-10-24T04:57:08;101311.75;;;12.83;74.10
58739;BME280;44512;53.046;18.604;2022-10-24T05:07:36;101356.27;;;12.82;74.24
58739;BME280;44512;53.046;18.604;2022-10-24T05:18:05;101337.27;;;12.89;74.33
58739;BME280;44512;53.046;18.604;2022-10-24T05:28:33;101350.89;;;12.95;74.30
58739;BME280;44512;53.046;18.604;2022-10-24T05:39:02;101364.72;;;13.00;74.27
58739;BME280;44512;53.046;18.604;2022-10-24T05:49:30;101377.91;;;13.03;74.32
58739;BME280;44512;53.046;18.604;2022-10-24T05:59:58;101366.63;;;13.07;74.37
58739;BME280;44512;53.046;18.604;2022-10-24T06:10:27;101356.41;;;13.09;74.43
58739;BME280;44512;53.046;18.604;2022-10-24T06:20:58;101357.02;;;13.11;74.56
58739;BME280;44512;53.046;18.604;2022-10-24T06:31:23;101365.19;;;13.11;74.72
58739;BME280;44512;53.046;18.604;2022-10-24T06:41:52;101369.18;;;13.15;74.89
58739;BME280;44512;53.046;18.604;2022-10-24T06:52:20;101389.68;;;13.17;75.05
58739;BME280;44512;53.046;18.604;2022-10-24T07:02:48;101391.82;;;13.22;75.15
58739;BME280;44512;53.046;18.604;2022-10-24T07:13:17;101394.36;;;13.23;75.29
58739;BME280;44512;53.046;18.604;2022-10-24T07:23:45;101375.90;;;13.19;75.39
58739;BME280;44512;53.046;18.604;2022-10-24T07:34:14;101370.96;;;13.29;75.46
58739;BME280;44512;53.046;18.604;2022-10-24T07:44:42;101362.15;;;13.27;75.61
58739;BME280;44512;53.046;18.604;2022-10-24T07:55:11;101365.52;;;13.29;75.83
58739;BME280;44512;53.046;18.604;2022-10-24T08:05:40;101362.83;;;13.36;75.94
58739;BME280;44512;53.046;18.604;2022-10-24T08:16:09;101341.30;;;13.41;76.11
58739;BME280;44512;53.046;18.604;2022-10-24T08:26:35;101329.59;;;13.40;76.30
58739;BME280;44512;53.046;18.604;2022-10-24T08:37:04;101349.30;;;13.55;76.61
58739;BME280;44512;53.046;18.604;2022-10-24T08:47:41;101347.20;;;13.58;76.90
58739;BME280;44512;53.046;18.604;2022-10-24T08:58:01;101355.19;;;13.66;77.18
58739;BME280;44512;53.046;18.604;2022-10-24T09:18:58;101355.64;;;13.83;77.98
58739;BME280;44512;53.046;18.604;2022-10-24T09:29:29;101340.59;;;13.93;78.68
58739;BME280;44512;53.046;18.604;2022-10-24T09:40:10;101335.34;;;14.05;78.97
58739;BME280;44512;53.046;18.604;2022-10-24T09:50:23;101333.88;;;14.16;79.15
58739;BME280;44512;53.046;18.604;2022-10-24T10:00:58;101334.95;;;14.28;79.28
58739;BME280;44512;53.046;18.604;2022-10-24T10:11:26;101330.97;;;14.37;79.23
58739;BME280;44512;53.046;18.604;2022-10-24T10:21:55;101342.31;;;14.47;79.22
58739;BME280;44512;53.046;18.604;2022-10-24T10:32:26;101340.83;;;14.58;79.05
58739;BME280;44512;53.046;18.604;2022-10-24T10:53:21;101354.39;;;14.78;78.95
58739;BME280;44512;53.046;18.604;2022-10-24T11:24:44;101321.82;;;15.09;78.40
58739;BME280;44512;53.046;18.604;2022-10-24T11:35:17;101301.83;;;15.22;77.86
58739;BME280;44512;53.046;18.604;2022-10-24T11:45:44;101313.94;;;15.33;77.75
58739;BME280;44512;53.046;18.604;2022-10-24T12:06:47;101309.64;;;15.50;77.09
58739;BME280;44512;53.046;18.604;2022-10-24T12:27:38;101296.91;;;15.76;76.36
58739;BME280;44512;53.046;18.604;2022-10-24T12:37:58;101286.52;;;15.91;75.92
58739;BME280;44512;53.046;18.604;2022-10-24T12:48:32;101285.35;;;16.05;74.89
58739;BME280;44512;53.046;18.604;2022-10-24T13:09:37;101278.89;;;16.25;74.40
58739;BME280;44512;53.046;18.604;2022-10-24T13:20:00;101286.58;;;16.34;74.36
58739;BME280;44512;53.046;18.604;2022-10-24T13:30:25;101274.07;;;16.45;73.95
58739;BME280;44512;53.046;18.604;2022-10-24T13:40:48;101283.65;;;16.54;73.89
58739;BME280;44512;53.046;18.604;2022-10-24T14:01:44;101294.32;;;16.81;73.52
58739;BME280;44512;53.046;18.604;2022-10-24T14:12:25;101280.80;;;16.86;73.33
58739;BME280;44512;53.046;18.604;2022-10-24T14:22:41;101271.05;;;16.90;73.47
58739;BME280;44512;53.046;18.604;2022-10-24T14:33:21;101280.27;;;16.96;73.57
58739;BME280;44512;53.046;18.604;2022-10-24T14:43:40;101273.49;;;16.98;73.56
58739;BME280;44512;53.046;18.604;2022-10-24T15:04:40;101271.83;;;16.97;73.25
58739;BME280;44512;53.046;18.604;2022-10-24T15:25:36;101258.00;;;16.92;73.11
58739;BME280;44512;53.046;18.604;2022-10-24T15:36:00;101267.73;;;16.88;73.02
58739;BME280;44512;53.046;18.604;2022-10-24T15:46:28;101273.05;;;16.83;72.94
58739;BME280;44512;53.046;18.604;2022-10-24T15:56:56;101270.75;;;16.80;72.92
58739;BME280;44512;53.046;18.604;2022-10-24T16:07:25;101274.20;;;16.75;72.82
58739;BME280;44512;53.046;18.604;2022-10-24T16:17:54;101291.25;;;16.71;72.76
58739;BME280;44512;53.046;18.604;2022-10-24T16:28:22;101281.82;;;16.66;72.77
58739;BME280;44512;53.046;18.604;2022-10-24T16:38:51;101290.70;;;16.62;73.08
58739;BME280;44512;53.046;18.604;2022-10-24T16:54:23;101290.93;;;16.60;72.77
58739;BME280;44512;53.046;18.604;2022-10-24T17:04:51;101287.57;;;16.58;72.75
58739;BME280;44512;53.046;18.604;2022-10-24T17:15:20;101281.08;;;16.59;72.70
58739;BME280;44512;53.046;18.604;2022-10-24T17:25:48;101274.98;;;16.57;72.58
58739;BME280;44512;53.046;18.604;2022-10-24T17:36:25;101274.38;;;16.55;72.47
58739;BME280;44512;53.046;18.604;2022-10-24T17:46:45;101276.49;;;16.53;72.42
58739;BME280;44512;53.046;18.604;2022-10-24T17:57:13;101287.89;;;16.50;72.44
58739;BME280;44512;53.046;18.604;2022-10-24T18:07:41;101288.09;;;16.49;72.42
58739;BME280;44512;53.046;18.604;2022-10-24T18:18:10;101275.30;;;16.49;72.42
58739;BME280;44512;53.046;18.604;2022-10-24T18:28:40;101272.77;;;16.48;72.43
58739;BME280;44512;53.046;18.604;2022-10-24T18:39:06;101279.06;;;16.48;72.42
58739;BME280;44512;53.046;18.604;2022-10-24T18:49:35;101270.86;;;16.48;72.46
58739;BME280;44512;53.046;18.604;2022-10-24T19:00:05;101271.49;;;16.50;72.44
58739;BME280;44512;53.046;18.604;2022-10-24T19:10:32;101268.13;;;16.48;72.52
58739;BME280;44512;53.046;18.604;2022-10-24T19:21:00;101267.77;;;16.45;72.75
58739;BME280;44512;53.046;18.604;2022-10-24T19:31:28;101273.44;;;16.43;72.96
58739;BME280;44512;53.046;18.604;2022-10-24T19:41:57;101248.85;;;16.43;73.28
58739;BME280;44512;53.046;18.604;2022-10-24T19:52:25;101247.34;;;16.47;73.44
58739;BME280;44512;53.046;18.604;2022-10-24T20:02:54;101281.59;;;16.50;73.35
58739;BME280;44512;53.046;18.604;2022-10-24T20:13:22;101297.59;;;16.46;73.51
58739;BME280;44512;53.046;18.604;2022-10-24T20:23:50;101297.36;;;16.48;73.68
58739;BME280;44512;53.046;18.604;2022-10-24T20:34:19;101289.79;;;16.50;73.68
58739;BME280;44512;53.046;18.604;2022-10-24T20:44:47;101288.96;;;16.49;73.62
58739;BME280;44512;53.046;18.604;2022-10-24T20:55:15;101298.03;;;16.43;73.57
58739;BME280;44512;53.046;18.604;2022-10-24T21:05:44;101306.46;;;16.41;73.65
58739;BME280;44512;53.046;18.604;2022-10-24T21:16:13;101311.52;;;16.38;73.43
58739;BME280;44512;53.046;18.604;2022-10-24T21:26:40;101323.37;;;16.32;73.20
58739;BME280;44512;53.046;18.604;2022-10-24T21:37:09;101338.52;;;16.28;72.48
58739;BME280;44512;53.046;18.604;2022-10-24T21:47:37;101329.05;;;16.30;71.61
58739;BME280;44512;53.046;18.604;2022-10-24T21:58:06;101333.02;;;16.34;71.85
58739;BME280;44512;53.046;18.604;2022-10-24T22:08:34;101335.95;;;16.33;72.44
58739;BME280;44512;53.046;18.604;2022-10-24T22:19:04;101339.59;;;16.27;72.66
58739;BME280;44512;53.046;18.604;2022-10-24T22:29:31;101346.54;;;16.23;72.59
58739;BME280;44512;53.046;18.604;2022-10-24T22:39:59;101362.33;;;16.21;72.60
58739;BME280;44512;53.046;18.604;2022-10-24T23:01:03;101384.44;;;16.12;72.62
58739;BME280;44512;53.046;18.604;2022-10-24T23:11:25;101385.55;;;16.05;72.90
58739;BME280;44512;53.046;18.604;2022-10-24T23:22:02;101368.57;;;16.03;73.03
58739;BME280;44512;53.046;18.604;2022-10-24T23:32:29;101360.57;;;16.01;72.94
58739;BME280;44512;53.046;18.604;2022-10-24T23:42:50;101365.66;;;15.98;72.91
58739;BME280;44512;53.046;18.604;2022-10-24T23:53:29;101374.05;;;15.96;72.86
